Time;durP1;ratioP1;P1;durP2;ratioP2;P2;SDS_P1;SDS_P2;PMS_P1;PMS_P2;Temp;Humidity;BMP_temperature;BMP_pressure;BME280_temperature;BME280_humidity;BME280_pressure;Samples;Min_cycle;Max_cycle;Signal;HPM_P1;HPM_P2
2022/04/24 00:00:18;;;;;;;5.35;4.22;;;13.80;56.60;;;;;;2090240;28;20028;-69
2022/04/24 00:01:19;;;;;;;4.65;4.25;;;13.80;56.60;;;;;;2088381;28;20091;-69
2022/04/24 00:02:19;;;;;;;4.68;4.28;;;13.80;56.70;;;;;;2090668;28;20469;-69
2022/04/24 00:03:20;;;;;;;4.53;4.20;;;13.80;56.80;;;;;;2087799;28;21669;-69
2022/04/24 00:04:20;;;;;;;4.90;4.43;;;13.80;56.70;;;;;;2087633;28;20045;-69
2022/04/24 00:05:21;;;;;;;4.60;4.20;;;13.80;56.70;;;;;;2087859;28;20150;-69
2022/04/24 00:06:21;;;;;;;5.07;4.63;;;13.80;56.80;;;;;;2090155;28;20025;-68
2022/04/24 00:07:22;;;;;;;4.53;4.13;;;13.80;56.90;;;;;;2091592;28;20635;-69
2022/04/24 00:08:22;;;;;;;4.70;4.30;;;13.70;56.80;;;;;;2090396;28;20096;-69
2022/04/24 00:09:23;;;;;;;5.15;4.75;;;13.70;56.90;;;;;;2086401;28;20104;-69
2022/04/24 00:10:23;;;;;;;4.13;3.83;;;13.70;56.80;;;;;;2090936;28;20498;-69
2022/04/24 00:11:25;;;;;;;4.43;4.13;;;13.70;57.00;;;;;;2090396;28;20436;-69
2022/04/24 00:12:25;;;;;;;5.05;4.60;;;13.70;57.10;;;;;;2089253;28;20025;-69
2022/04/24 00:13:26;;;;;;;5.15;4.65;;;13.70;57.00;;;;;;2089232;28;20040;-69
2022/04/24 00:14:27;;;;;;;4.88;4.43;;;13.70;57.10;;;;;;2085269;28;20032;-69
2022/04/24 00:15:27;;;;;;;5.10;4.60;;;13.60;57.10;;;;;;2086667;28;20579;-69
2022/04/24 00:16:28;;;;;;;4.28;3.88;;;13.60;57.10;;;;;;2087304;28;20491;-69
2022/04/24 00:17:29;;;;;;;4.40;4.05;;;13.60;57.20;;;;;;2086152;28;20406;-69
2022/04/24 00:18:29;;;;;;;4.70;4.30;;;13.60;57.30;;;;;;2089768;28;20044;-69
2022/04/24 00:19:30;;;;;;;4.82;4.43;;;13.60;57.30;;;;;;2086529;28;20532;-69
2022/04/24 00:20:30;;;;;;;5.90;4.43;;;13.60;57.40;;;;;;2087982;28;20029;-69
2022/04/24 00:21:32;;;;;;;5.00;4.60;;;13.50;57.30;;;;;;2087338;28;20044;-69
2022/04/24 00:22:32;;;;;;;4.85;4.45;;;13.50;57.40;;;;;;2087852;28;20023;-69
2022/04/24 00:23:33;;;;;;;4.57;4.18;;;13.50;57.50;;;;;;2088089;28;20077;-69
2022/04/24 00:24:34;;;;;;;5.05;4.65;;;13.50;57.50;;;;;;2087237;28;20021;-69
2022/04/24 00:25:35;;;;;;;4.40;4.00;;;13.50;57.60;;;;;;2086546;28;20155;-69
2022/04/24 00:26:35;;;;;;;4.90;4.50;;;13.50;57.60;;;;;;2085839;28;20025;-69
2022/04/24 00:27:36;;;;;;;5.10;4.68;;;13.50;57.60;;;;;;2087546;28;20121;-69
2022/04/24 00:28:36;;;;;;;5.22;4.78;;;13.50;57.70;;;;;;2088863;28;20030;-69
2022/04/24 00:29:37;;;;;;;4.80;4.40;;;13.50;57.90;;;;;;2087410;28;20040;-69
2022/04/24 00:30:38;;;;;;;4.70;3.95;;;13.50;57.80;;;;;;2088430;28;20111;-69
2022/04/24 00:31:38;;;;;;;4.65;4.32;;;13.50;57.90;;;;;;2088938;28;20024;-69
2022/04/24 00:32:39;;;;;;;5.07;4.68;;;13.40;57.90;;;;;;2087274;28;21396;-69
2022/04/24 00:33:39;;;;;;;4.50;4.10;;;13.40;57.90;;;;;;2090344;28;20083;-69
2022/04/24 00:34:41;;;;;;;4.57;4.20;;;13.40;57.90;;;;;;2086110;28;20120;-69
2022/04/24 00:35:41;;;;;;;4.28;3.97;;;13.40;57.80;;;;;;2086153;28;20112;-69
2022/04/24 00:36:43;;;;;;;4.60;4.20;;;13.40;57.80;;;;;;2088783;28;20033;-69
2022/04/24 00:37:44;;;;;;;4.45;4.05;;;13.40;57.90;;;;;;2090102;28;20037;-69
2022/04/24 00:38:45;;;;;;;4.65;4.35;;;13.40;58.00;;;;;;2088873;28;20024;-69
2022/04/24 00:39:45;;;;;;;4.78;4.35;;;13.40;58.10;;;;;;2087501;28;20144;-69
2022/04/24 00:40:47;;;;;;;4.70;4.30;;;13.40;58.10;;;;;;2086069;28;20041;-69
2022/04/24 00:41:50;;;;;;;4.45;4.10;;;13.40;58.00;;;;;;2087990;28;20016;-69
2022/04/24 00:42:50;;;;;;;4.60;4.20;;;13.40;57.80;;;;;;2086564;28;20099;-69
2022/04/24 00:43:55;;;;;;;4.30;4.00;;;13.40;57.70;;;;;;2089637;28;20016;-69
2022/04/24 00:44:56;;;;;;;4.80;4.40;;;13.40;57.90;;;;;;2086218;28;20534;-69
2022/04/24 00:46:39;;;;;;;5.78;4.40;;;13.30;58.00;;;;;;2085983;28;20427;-69
2022/04/24 00:47:41;;;;;;;4.75;4.35;;;13.30;58.50;;;;;;2070003;28;20058;-69
2022/04/24 00:48:43;;;;;;;4.53;4.20;;;13.30;58.40;;;;;;2087169;28;20024;-69
2022/04/24 00:49:45;;;;;;;5.50;4.45;;;13.20;58.30;;;;;;2087865;28;20114;-69
2022/04/24 00:50:46;;;;;;;5.55;5.07;;;13.20;58.50;;;;;;2078173;28;20107;-69
2022/04/24 00:51:47;;;;;;;5.03;4.53;;;13.20;58.60;;;;;;2086041;28;20040;-69
2022/04/24 00:52:48;;;;;;;4.72;4.32;;;13.20;58.50;;;;;;2088336;28;20045;-69
2022/04/24 00:53:48;;;;;;;5.18;4.65;;;13.20;58.70;;;;;;2087205;28;20039;-69
2022/04/24 00:54:51;;;;;;;4.70;4.30;;;13.20;58.80;;;;;;2087906;28;20021;-69
2022/04/24 00:55:52;;;;;;;5.10;4.63;;;13.20;58.70;;;;;;2086866;28;20028;-69
2022/04/24 00:56:55;;;;;;;5.03;4.63;;;13.10;58.80;;;;;;2088199;28;20012;-69
2022/04/24 00:57:56;;;;;;;4.90;4.50;;;13.10;58.90;;;;;;2084735;28;20095;-69
2022/04/24 00:58:58;;;;;;;6.22;4.32;;;13.10;58.80;;;;;;2085312;28;20059;-69
2022/04/24 00:59:59;;;;;;;5.00;4.50;;;13.10;59.10;;;;;;2089815;28;20024;-69
2022/04/24 01:01:00;;;;;;;5.40;4.97;;;13.10;59.10;;;;;;2087048;28;20059;-69
2022/04/24 01:02:05;;;;;;;5.53;5.03;;;13.00;59.20;;;;;;2087947;28;21735;-69
2022/04/24 01:03:05;;;;;;;5.28;4.78;;;13.00;59.30;;;;;;2087268;28;20074;-69
2022/04/24 01:04:08;;;;;;;4.55;4.22;;;13.00;59.40;;;;;;2087193;28;20102;-69
2022/04/24 01:05:09;;;;;;;7.90;5.13;;;13.00;59.20;;;;;;2086424;28;20109;-69
2022/04/24 01:06:10;;;;;;;5.90;5.05;;;13.00;59.50;;;;;;2087885;28;20522;-69
2022/04/24 01:07:10;;;;;;;5.80;4.20;;;12.90;59.60;;;;;;2091313;28;20021;-69
2022/04/24 01:08:11;;;;;;;5.47;4.95;;;12.90;59.50;;;;;;2089306;28;20031;-69
2022/04/24 01:09:11;;;;;;;5.35;4.85;;;12.90;59.70;;;;;;2087649;28;20017;-69
2022/04/24 01:10:12;;;;;;;5.53;4.90;;;12.80;59.70;;;;;;2086315;28;20044;-69
2022/04/24 01:11:12;;;;;;;5.57;4.97;;;12.80;59.70;;;;;;2090959;28;20023;-69
2022/04/24 01:12:25;;;;;;;4.85;4.45;;;12.80;59.80;;;;;;2088631;28;20491;-69
2022/04/24 01:13:26;;;;;;;5.80;5.30;;;12.80;59.90;;;;;;2084072;28;20403;-69
2022/04/24 01:14:28;;;;;;;5.72;5.20;;;12.80;60.00;;;;;;2086009;28;20035;-69
2022/04/24 01:15:29;;;;;;;6.15;4.40;;;12.80;60.20;;;;;;2086323;28;20088;-69
2022/04/24 01:16:29;;;;;;;4.72;4.43;;;12.70;59.80;;;;;;2086005;28;20021;-69
2022/04/24 01:17:30;;;;;;;4.65;4.25;;;12.70;59.90;;;;;;2086830;28;20109;-69
2022/04/24 01:18:32;;;;;;;5.03;4.63;;;12.70;59.80;;;;;;2088500;28;20708;-69
2022/04/24 01:19:33;;;;;;;6.30;4.95;;;12.70;59.60;;;;;;2089731;28;20111;-69
2022/04/24 01:20:34;;;;;;;5.15;4.75;;;12.70;59.80;;;;;;2088792;28;20037;-69
2022/04/24 01:21:35;;;;;;;5.88;5.38;;;12.70;59.80;;;;;;2089836;28;20021;-69
2022/04/24 01:22:36;;;;;;;5.75;5.15;;;12.70;60.10;;;;;;2087060;28;20032;-69
2022/04/24 01:23:38;;;;;;;5.63;5.13;;;12.60;60.00;;;;;;2086811;28;20480;-69
2022/04/24 01:24:38;;;;;;;5.55;5.15;;;12.60;60.20;;;;;;2084978;28;20049;-69
2022/04/24 01:25:45;;;;;;;5.53;5.10;;;12.60;60.60;;;;;;2087684;28;20036;-69
2022/04/24 01:26:46;;;;;;;5.70;5.30;;;12.60;60.50;;;;;;2087022;28;20017;-69
2022/04/24 01:27:47;;;;;;;5.90;5.25;;;12.60;60.40;;;;;;2089043;28;20519;-69
2022/04/24 01:28:50;;;;;;;7.15;6.07;;;12.50;60.60;;;;;;2088843;28;20047;-69
2022/04/24 01:29:51;;;;;;;6.57;5.88;;;12.50;60.90;;;;;;2084536;28;20055;-69
2022/04/24 01:30:52;;;;;;;6.00;5.40;;;12.50;61.30;;;;;;2088179;28;20125;-69
2022/04/24 01:31:53;;;;;;;6.22;5.50;;;12.40;61.40;;;;;;2087677;28;20042;-69
2022/04/24 01:32:53;;;;;;;6.22;5.68;;;12.40;61.20;;;;;;2088548;28;20046;-69
2022/04/24 01:33:57;;;;;;;6.68;6.07;;;12.40;61.00;;;;;;2090046;28;20029;-69
2022/04/24 01:34:58;;;;;;;6.55;5.72;;;12.40;61.40;;;;;;2090167;28;20447;-69
2022/04/24 01:35:58;;;;;;;7.28;6.10;;;12.30;61.80;;;;;;2088774;28;20051;-69
2022/04/24 01:36:59;;;;;;;5.97;5.47;;;12.30;61.80;;;;;;2088854;28;20025;-69
2022/04/24 01:37:59;;;;;;;6.07;5.57;;;12.30;61.90;;;;;;2084923;28;20030;-69
2022/04/24 01:39:00;;;;;;;6.50;5.97;;;12.30;62.00;;;;;;2085686;28;20052;-69
2022/04/24 01:40:00;;;;;;;6.00;5.50;;;12.20;62.00;;;;;;2088642;28;20029;-69
2022/04/24 01:41:01;;;;;;;6.53;5.93;;;12.20;62.20;;;;;;2088262;28;20033;-69
2022/04/24 01:42:02;;;;;;;6.25;5.68;;;12.20;62.30;;;;;;2087713;28;20021;-69
2022/04/24 01:43:03;;;;;;;6.85;6.25;;;12.20;62.50;;;;;;2086839;28;20100;-69
2022/04/24 01:44:03;;;;;;;6.47;5.90;;;12.20;62.70;;;;;;2089083;28;20048;-69
2022/04/24 01:45:05;;;;;;;6.65;6.05;;;12.10;62.60;;;;;;2090021;28;20033;-69
2022/04/24 01:46:06;;;;;;;6.13;5.63;;;12.10;62.80;;;;;;2084862;28;20135;-69
2022/04/24 01:47:06;;;;;;;8.45;6.03;;;12.10;63.00;;;;;;2089783;28;20017;-69
2022/04/24 01:48:07;;;;;;;7.47;6.50;;;12.10;63.10;;;;;;2087266;28;20028;-69
2022/04/24 01:49:08;;;;;;;6.32;5.82;;;12.10;63.20;;;;;;2090261;28;20029;-69
2022/04/24 01:50:08;;;;;;;6.40;5.90;;;12.00;63.40;;;;;;2088322;28;20009;-69
2022/04/24 01:51:10;;;;;;;6.40;5.80;;;12.00;63.40;;;;;;2089711;28;20047;-69
2022/04/24 01:52:10;;;;;;;6.13;5.63;;;12.00;63.50;;;;;;2089482;28;20029;-69
2022/04/24 01:53:11;;;;;;;7.55;6.60;;;12.00;63.80;;;;;;2087096;28;20033;-69
2022/04/24 01:54:11;;;;;;;8.52;6.50;;;12.00;64.60;;;;;;2086505;28;20017;-69
2022/04/24 01:55:12;;;;;;;6.32;5.70;;;11.90;63.90;;;;;;2087883;28;20051;-69
2022/04/24 01:56:13;;;;;;;6.13;5.63;;;11.90;63.90;;;;;;2089747;28;20045;-69
2022/04/24 01:57:13;;;;;;;7.57;5.97;;;11.90;63.90;;;;;;2089302;28;20238;-69
2022/04/24 01:58:14;;;;;;;6.10;5.60;;;11.90;64.00;;;;;;2088229;28;20025;-69
2022/04/24 01:59:15;;;;;;;6.20;5.60;;;11.90;64.00;;;;;;2089264;28;20492;-69
2022/04/24 02:00:15;;;;;;;6.65;6.15;;;11.90;64.10;;;;;;2090300;28;20093;-69
2022/04/24 02:01:16;;;;;;;6.72;6.05;;;11.90;64.30;;;;;;2087431;28;20112;-69
2022/04/24 02:02:17;;;;;;;6.72;6.22;;;11.80;64.30;;;;;;2088949;28;20432;-69
2022/04/24 02:03:18;;;;;;;6.68;6.10;;;11.80;64.50;;;;;;2089539;28;20041;-69
2022/04/24 02:04:22;;;;;;;6.57;6.03;;;11.80;64.60;;;;;;2088946;28;20028;-69
2022/04/24 02:05:23;;;;;;;6.40;5.90;;;11.80;64.60;;;;;;2087064;28;20095;-69
2022/04/24 02:06:23;;;;;;;6.43;5.82;;;11.80;64.80;;;;;;2086328;28;20090;-69
2022/04/24 02:07:24;;;;;;;6.88;6.28;;;11.80;64.90;;;;;;2088040;28;20036;-69
2022/04/24 02:08:25;;;;;;;6.40;5.90;;;11.80;65.10;;;;;;2087009;28;20484;-69
2022/04/24 02:09:25;;;;;;;6.35;5.80;;;11.70;65.20;;;;;;2087983;28;20032;-69
2022/04/24 02:10:26;;;;;;;6.22;5.72;;;11.70;65.20;;;;;;2090733;28;20035;-69
2022/04/24 02:11:28;;;;;;;6.85;6.25;;;11.70;65.40;;;;;;2088187;28;20037;-69
2022/04/24 02:12:28;;;;;;;6.68;5.93;;;11.70;65.60;;;;;;2090156;28;20035;-69
2022/04/24 02:13:29;;;;;;;7.05;6.45;;;11.70;65.40;;;;;;2087510;28;20044;-69
2022/04/24 02:14:29;;;;;;;7.30;6.70;;;11.70;65.70;;;;;;2092479;28;20548;-69
2022/04/24 02:15:30;;;;;;;6.47;5.88;;;11.70;65.80;;;;;;2090336;28;20048;-69
2022/04/24 02:16:31;;;;;;;7.00;6.30;;;11.70;65.70;;;;;;2089051;28;20025;-69
2022/04/24 02:17:31;;;;;;;6.97;6.20;;;11.60;65.60;;;;;;2089881;28;20385;-69
2022/04/24 02:18:32;;;;;;;6.63;6.10;;;11.60;65.90;;;;;;2089375;28;20491;-69
2022/04/24 02:19:32;;;;;;;6.97;6.35;;;11.60;66.00;;;;;;2090270;28;20400;-69
2022/04/24 02:20:33;;;;;;;6.18;5.68;;;11.60;66.10;;;;;;2089866;28;20074;-69
2022/04/24 02:21:34;;;;;;;6.15;5.60;;;11.60;65.90;;;;;;2088343;28;20476;-69
2022/04/24 02:22:34;;;;;;;6.75;6.10;;;11.60;66.00;;;;;;2087891;28;20489;-69
2022/04/24 02:23:35;;;;;;;6.40;5.80;;;11.60;66.10;;;;;;2086759;28;20401;-69
2022/04/24 02:24:35;;;;;;;6.88;6.28;;;11.60;65.90;;;;;;2087537;28;20037;-69
2022/04/24 02:25:36;;;;;;;6.32;5.80;;;11.60;65.70;;;;;;2087181;28;21466;-69
2022/04/24 02:26:37;;;;;;;6.47;5.95;;;11.60;65.90;;;;;;2088122;28;20056;-69
2022/04/24 02:27:38;;;;;;;7.07;6.47;;;11.60;65.90;;;;;;2089079;28;20599;-69
2022/04/24 02:28:38;;;;;;;6.93;6.35;;;11.50;66.20;;;;;;2088352;28;20436;-69
2022/04/24 02:29:39;;;;;;;6.57;5.97;;;11.50;66.30;;;;;;2093876;28;20139;-69
2022/04/24 02:30:39;;;;;;;6.82;6.22;;;11.50;66.70;;;;;;2089970;28;20033;-69
2022/04/24 02:31:40;;;;;;;6.40;5.90;;;11.50;66.90;;;;;;2088062;28;20031;-69
2022/04/24 02:32:41;;;;;;;6.30;5.70;;;11.50;66.40;;;;;;2088386;28;20056;-69
2022/04/24 02:33:41;;;;;;;6.72;5.63;;;11.50;66.50;;;;;;2086798;28;20055;-69
2022/04/24 02:34:42;;;;;;;6.80;5.95;;;11.40;66.90;;;;;;2088400;28;20029;-69
2022/04/24 02:35:43;;;;;;;7.35;6.65;;;11.40;67.20;;;;;;2086051;28;20040;-69
2022/04/24 02:36:43;;;;;;;7.90;7.10;;;11.40;68.20;;;;;;2088358;28;20045;-69
2022/04/24 02:37:44;;;;;;;6.75;6.15;;;11.40;67.50;;;;;;2090374;28;20032;-69
2022/04/24 02:38:45;;;;;;;6.63;6.03;;;11.40;67.80;;;;;;2088506;28;20045;-69
2022/04/24 02:39:45;;;;;;;7.07;6.47;;;11.30;67.90;;;;;;2088622;28;20025;-69
2022/04/24 02:40:46;;;;;;;6.65;6.05;;;11.30;68.10;;;;;;2086390;28;20036;-69
2022/04/24 02:41:46;;;;;;;7.50;6.80;;;11.30;68.50;;;;;;2088023;28;20098;-69
2022/04/24 02:42:49;;;;;;;7.28;6.57;;;11.20;68.50;;;;;;2088406;28;20029;-69
2022/04/24 02:43:50;;;;;;;6.72;6.13;;;11.20;68.70;;;;;;2089136;28;20494;-69
2022/04/24 02:44:50;;;;;;;7.40;6.70;;;11.20;68.40;;;;;;2087306;28;20528;-69
2022/04/24 02:45:51;;;;;;;9.40;7.18;;;11.20;68.60;;;;;;2090654;28;20396;-69
2022/04/24 02:46:51;;;;;;;6.65;6.05;;;11.20;69.10;;;;;;2088466;28;20021;-69
2022/04/24 02:47:52;;;;;;;6.80;6.28;;;11.20;69.00;;;;;;2089411;28;20489;-69
2022/04/24 02:48:52;;;;;;;7.63;6.93;;;11.10;69.30;;;;;;2087635;28;20104;-69
2022/04/24 02:49:53;;;;;;;7.40;6.78;;;11.10;69.60;;;;;;2090223;28;20100;-69
2022/04/24 02:50:54;;;;;;;8.07;7.28;;;11.10;69.90;;;;;;2088874;28;20029;-69
2022/04/24 02:51:54;;;;;;;7.63;7.03;;;11.10;70.20;;;;;;2089967;28;20468;-69
2022/04/24 02:52:56;;;;;;;7.88;7.18;;;11.00;70.30;;;;;;2090034;28;20467;-69
2022/04/24 02:53:56;;;;;;;7.57;6.82;;;11.00;70.50;;;;;;2088318;28;20017;-69
2022/04/24 02:54:57;;;;;;;7.43;6.80;;;11.00;70.80;;;;;;2091330;28;20063;-69
2022/04/24 02:55:57;;;;;;;7.45;6.78;;;11.10;71.00;;;;;;2089517;28;20025;-69
2022/04/24 02:56:58;;;;;;;7.60;6.90;;;11.00;71.00;;;;;;2088455;28;20028;-69
2022/04/24 02:57:58;;;;;;;7.57;6.97;;;11.00;71.30;;;;;;2086321;28;20083;-69
2022/04/24 02:58:59;;;;;;;8.52;7.65;;;11.00;71.60;;;;;;2088573;28;20025;-69
2022/04/24 02:59:59;;;;;;;7.25;6.60;;;11.00;71.70;;;;;;2089506;28;20025;-69
2022/04/24 03:01:00;;;;;;;8.70;7.90;;;10.90;71.90;;;;;;2089222;28;20026;-69
2022/04/24 03:02:00;;;;;;;9.18;8.07;;;10.90;72.30;;;;;;2090475;28;20017;-69
2022/04/24 03:03:01;;;;;;;8.77;7.97;;;10.90;72.50;;;;;;2090164;28;20028;-69
2022/04/24 03:04:01;;;;;;;7.57;6.90;;;10.90;72.80;;;;;;2090982;28;20020;-69
2022/04/24 03:05:02;;;;;;;7.80;7.05;;;10.90;73.00;;;;;;2087298;28;20031;-69
2022/04/24 03:06:03;;;;;;;9.35;7.47;;;10.80;73.40;;;;;;2089720;28;20036;-69
2022/04/24 03:07:04;;;;;;;8.07;7.38;;;10.80;73.60;;;;;;2089093;28;20021;-69
2022/04/24 03:08:05;;;;;;;9.07;7.68;;;10.80;74.00;;;;;;2087746;28;20105;-69
2022/04/24 03:09:05;;;;;;;9.52;8.48;;;10.80;74.20;;;;;;2088531;28;20083;-69
2022/04/24 03:10:08;;;;;;;8.18;7.47;;;10.80;74.40;;;;;;2090028;28;20079;-69
2022/04/24 03:11:09;;;;;;;8.85;7.82;;;10.80;74.60;;;;;;2090359;28;20063;-69
2022/04/24 03:12:10;;;;;;;8.60;7.90;;;10.70;74.70;;;;;;2088649;28;20036;-69
2022/04/24 03:13:11;;;;;;;8.85;8.10;;;10.70;74.70;;;;;;2087577;28;20036;-69
2022/04/24 03:14:12;;;;;;;8.85;8.05;;;10.80;75.10;;;;;;2087739;28;20017;-69
2022/04/24 03:15:14;;;;;;;8.88;8.10;;;10.70;75.30;;;;;;2087601;28;20019;-69
2022/04/24 03:16:14;;;;;;;9.23;8.40;;;10.80;75.10;;;;;;2088870;28;20033;-69
2022/04/24 03:17:15;;;;;;;9.02;7.55;;;10.70;75.30;;;;;;2087989;28;20104;-69
2022/04/24 03:18:16;;;;;;;9.60;8.80;;;10.70;75.30;;;;;;2089019;28;20019;-69
2022/04/24 03:19:16;;;;;;;8.85;8.13;;;10.70;75.70;;;;;;2088408;28;20112;-69
2022/04/24 03:20:18;;;;;;;9.43;8.40;;;10.70;76.10;;;;;;2086311;28;20522;-69
2022/04/24 03:21:19;;;;;;;9.65;8.27;;;10.70;77.00;;;;;;2089386;28;20017;-68
2022/04/24 03:22:20;;;;;;;8.90;8.10;;;10.70;76.60;;;;;;2088678;28;20022;-69
2022/04/24 03:23:20;;;;;;;9.20;8.23;;;10.70;76.80;;;;;;2089163;28;20024;-68
2022/04/24 03:24:21;;;;;;;8.75;7.90;;;10.70;77.10;;;;;;2089381;28;20068;-68
2022/04/24 03:25:22;;;;;;;9.07;8.15;;;10.70;77.40;;;;;;2088411;28;20029;-68
2022/04/24 03:26:22;;;;;;;8.90;8.07;;;10.70;77.40;;;;;;2086101;28;20023;-68
2022/04/24 03:27:23;;;;;;;9.05;8.25;;;10.70;77.50;;;;;;2088115;28;20082;-68
2022/04/24 03:28:24;;;;;;;8.85;8.05;;;10.60;77.90;;;;;;2050102;28;20029;-68
2022/04/24 03:29:24;;;;;;;9.50;7.78;;;10.70;78.20;;;;;;2006882;28;20025;-68
2022/04/24 03:30:25;;;;;;;9.32;8.43;;;10.60;78.70;;;;;;2007409;28;20029;-68
2022/04/24 03:31:25;;;;;;;8.85;8.05;;;10.60;79.50;;;;;;2005826;28;20579;-68
2022/04/24 03:32:30;;;;;;;9.43;8.52;;;10.60;79.10;;;;;;2012667;28;20116;-68
2022/04/24 03:33:31;;;;;;;11.40;8.00;;;10.60;79.80;;;;;;2020267;28;20960;-68
2022/04/24 03:34:31;;;;;;;9.80;8.80;;;10.60;79.70;;;;;;2088342;28;20355;-69
2022/04/24 03:35:32;;;;;;;9.18;8.27;;;10.60;80.00;;;;;;2091671;28;20040;-70
2022/04/24 03:36:32;;;;;;;10.25;8.85;;;10.50;80.30;;;;;;2092363;28;20582;-69
2022/04/24 03:37:33;;;;;;;9.10;8.25;;;10.50;80.60;;;;;;2089738;28;20027;-69
2022/04/24 03:38:34;;;;;;;10.07;9.18;;;10.50;81.50;;;;;;2089455;28;20473;-69
2022/04/24 03:39:34;;;;;;;9.52;8.45;;;10.50;81.00;;;;;;2086197;28;20029;-69
2022/04/24 03:40:35;;;;;;;9.70;8.82;;;10.50;81.20;;;;;;2088164;28;20029;-69
2022/04/24 03:41:35;;;;;;;9.63;8.80;;;10.50;81.40;;;;;;2090033;28;20021;-69
2022/04/24 03:42:36;;;;;;;9.20;8.38;;;10.50;81.70;;;;;;2089661;28;20686;-69
2022/04/24 03:43:37;;;;;;;10.32;9.35;;;10.40;81.90;;;;;;2091425;28;20021;-69
2022/04/24 03:44:38;;;;;;;10.30;9.40;;;10.40;82.60;;;;;;2089921;28;20021;-69
2022/04/24 03:45:38;;;;;;;10.27;9.27;;;10.40;82.80;;;;;;2087934;28;20013;-69
2022/04/24 03:46:39;;;;;;;10.05;9.15;;;10.40;83.20;;;;;;2088304;28;20457;-69
2022/04/24 03:47:39;;;;;;;11.13;9.20;;;10.40;83.50;;;;;;2088492;28;20032;-69
2022/04/24 03:48:40;;;;;;;9.98;9.07;;;10.40;83.60;;;;;;2087327;28;20064;-69
2022/04/24 03:49:41;;;;;;;10.38;9.38;;;10.40;84.00;;;;;;2088589;28;20492;-69
2022/04/24 03:50:41;;;;;;;9.38;8.48;;;10.40;84.40;;;;;;2089320;28;20055;-69
2022/04/24 03:51:42;;;;;;;9.68;8.88;;;10.40;84.30;;;;;;2088870;28;20107;-69
2022/04/24 03:52:43;;;;;;;9.75;8.90;;;10.40;85.20;;;;;;2087712;28;20434;-69
2022/04/24 03:53:43;;;;;;;9.85;8.88;;;10.40;85.20;;;;;;2091136;28;20036;-69
2022/04/24 03:54:44;;;;;;;9.30;8.52;;;10.30;85.60;;;;;;2090289;28;20083;-69
2022/04/24 03:55:48;;;;;;;8.82;8.13;;;10.30;85.40;;;;;;2086101;28;20113;-69
2022/04/24 03:56:48;;;;;;;9.95;9.10;;;10.30;85.50;;;;;;2089008;28;20451;-69
2022/04/24 03:57:49;;;;;;;10.27;9.10;;;10.30;85.70;;;;;;2090139;28;20045;-69
2022/04/24 03:58:49;;;;;;;9.55;8.65;;;10.30;86.10;;;;;;2087699;28;20116;-69
2022/04/24 03:59:50;;;;;;;9.77;8.88;;;10.30;86.30;;;;;;2089409;28;20036;-69
2022/04/24 04:00:51;;;;;;;9.60;8.60;;;10.30;86.80;;;;;;2088483;28;20082;-69
2022/04/24 04:01:52;;;;;;;9.95;9.02;;;10.30;87.30;;;;;;2089138;28;20075;-69
2022/04/24 04:02:53;;;;;;;10.55;9.60;;;10.20;87.90;;;;;;2088369;28;20104;-69
2022/04/24 04:03:53;;;;;;;10.10;9.10;;;10.20;88.00;;;;;;2086833;28;20020;-69
2022/04/24 04:04:54;;;;;;;9.80;8.88;;;10.20;88.30;;;;;;2089753;28;20059;-69
2022/04/24 04:05:54;;;;;;;10.02;9.02;;;10.30;88.70;;;;;;2087971;28;20028;-69
2022/04/24 04:06:55;;;;;;;10.45;9.10;;;10.30;89.10;;;;;;2089807;28;20044;-69
2022/04/24 04:07:56;;;;;;;10.27;9.27;;;10.20;89.40;;;;;;2088679;28;20036;-69
2022/04/24 04:08:57;;;;;;;9.48;8.57;;;10.20;89.90;;;;;;2088678;28;20071;-69
2022/04/24 04:09:57;;;;;;;10.10;9.20;;;10.20;90.00;;;;;;2087780;28;20431;-69
2022/04/24 04:10:59;;;;;;;10.35;9.35;;;10.20;90.20;;;;;;2088158;28;20488;-69
2022/04/24 04:12:00;;;;;;;9.93;9.00;;;10.20;90.40;;;;;;2086740;28;20064;-69
2022/04/24 04:13:05;;;;;;;10.00;9.00;;;10.20;90.60;;;;;;2088323;28;20028;-69
2022/04/24 04:14:06;;;;;;;9.10;8.30;;;10.20;91.30;;;;;;2087160;28;20017;-69
2022/04/24 04:15:08;;;;;;;9.93;9.13;;;10.10;91.00;;;;;;2087873;28;20385;-69
2022/04/24 04:16:08;;;;;;;11.02;8.77;;;10.10;91.20;;;;;;2084653;28;20033;-69
2022/04/24 04:17:09;;;;;;;10.00;9.00;;;10.10;91.40;;;;;;2090159;28;20519;-69
2022/04/24 04:18:09;;;;;;;10.23;9.30;;;10.10;91.50;;;;;;2089477;28;20423;-69
2022/04/24 04:19:10;;;;;;;9.57;8.77;;;10.10;91.60;;;;;;2089362;28;20028;-69
2022/04/24 04:20:11;;;;;;;9.45;8.52;;;10.10;91.90;;;;;;2086782;28;20111;-69
2022/04/24 04:21:12;;;;;;;9.25;8.35;;;10.10;91.80;;;;;;2087665;28;20021;-69
2022/04/24 04:22:12;;;;;;;9.30;8.50;;;10.10;92.00;;;;;;2090532;28;20092;-69
2022/04/24 04:23:13;;;;;;;10.18;9.07;;;10.10;92.20;;;;;;2088671;28;20031;-69
2022/04/24 04:24:13;;;;;;;10.07;9.15;;;10.10;92.40;;;;;;2087834;28;20029;-69
2022/04/24 04:25:14;;;;;;;8.68;7.90;;;10.10;92.60;;;;;;2088236;28;20017;-69
2022/04/24 04:26:17;;;;;;;9.20;8.30;;;10.10;92.50;;;;;;2088011;28;20029;-69
2022/04/24 04:27:18;;;;;;;11.50;9.07;;;10.10;92.70;;;;;;2088033;28;20021;-69
2022/04/24 04:28:19;;;;;;;9.90;8.90;;;10.10;92.80;;;;;;2087256;28;20020;-69
2022/04/24 04:29:19;;;;;;;9.50;8.68;;;10.00;93.00;;;;;;2087215;28;20108;-69
2022/04/24 04:30:20;;;;;;;9.75;8.77;;;10.00;93.20;;;;;;2088980;28;20027;-69
2022/04/24 04:31:21;;;;;;;10.05;9.13;;;10.00;93.40;;;;;;2086538;28;20397;-69
2022/04/24 04:32:21;;;;;;;9.77;8.85;;;10.00;93.50;;;;;;2089018;28;20079;-69
2022/04/24 04:33:22;;;;;;;10.20;8.82;;;10.00;93.70;;;;;;2092064;28;20486;-69
2022/04/24 04:34:22;;;;;;;9.60;8.80;;;10.00;93.80;;;;;;2087246;28;20024;-69
2022/04/24 04:35:23;;;;;;;10.25;8.95;;;10.00;93.90;;;;;;2087971;28;20594;-69
2022/04/24 04:36:24;;;;;;;11.32;9.20;;;10.00;94.10;;;;;;2087539;28;20031;-69
2022/04/24 04:37:24;;;;;;;9.18;8.27;;;10.00;94.30;;;;;;2087166;28;20075;-69
2022/04/24 04:38:25;;;;;;;10.13;8.45;;;10.00;94.50;;;;;;2088460;28;20052;-69
2022/04/24 04:39:26;;;;;;;11.45;8.68;;;10.00;94.60;;;;;;2089351;28;20043;-69
2022/04/24 04:40:26;;;;;;;9.13;8.23;;;10.00;94.90;;;;;;2087426;28;20017;-69
2022/04/24 04:41:27;;;;;;;10.73;8.82;;;10.00;95.00;;;;;;2087292;28;20460;-69
2022/04/24 04:42:27;;;;;;;9.50;8.60;;;10.00;95.00;;;;;;2088476;28;20017;-69
2022/04/24 04:43:29;;;;;;;9.43;8.40;;;10.00;95.10;;;;;;2090313;28;20036;-69
2022/04/24 04:44:29;;;;;;;10.02;8.38;;;10.00;95.40;;;;;;2088502;28;20238;-69
2022/04/24 04:45:30;;;;;;;9.13;8.30;;;10.00;95.50;;;;;;2087513;28;20025;-69
2022/04/24 04:46:30;;;;;;;9.38;8.48;;;10.00;95.40;;;;;;2088056;28;20017;-69
2022/04/24 04:47:31;;;;;;;9.48;8.57;;;10.00;95.40;;;;;;2089878;28;20020;-69
2022/04/24 04:48:31;;;;;;;9.02;8.20;;;10.00;95.60;;;;;;2087940;28;20033;-69
2022/04/24 04:49:32;;;;;;;9.23;8.15;;;10.00;95.60;;;;;;2086944;28;20834;-69
2022/04/24 04:50:32;;;;;;;8.90;7.53;;;10.00;95.70;;;;;;2086645;28;20029;-69
2022/04/24 04:51:33;;;;;;;9.10;8.20;;;10.00;96.00;;;;;;2084065;28;20033;-69
2022/04/24 04:52:34;;;;;;;8.68;7.88;;;10.00;96.10;;;;;;2089267;28;20036;-69
2022/04/24 04:53:35;;;;;;;9.55;8.45;;;10.00;96.20;;;;;;2087271;28;20035;-69
2022/04/24 04:54:36;;;;;;;8.65;7.95;;;10.00;96.40;;;;;;2087347;28;20040;-69
2022/04/24 04:55:37;;;;;;;8.90;8.10;;;10.00;96.40;;;;;;2087584;28;20036;-69
2022/04/24 04:56:38;;;;;;;9.02;8.13;;;10.00;96.80;;;;;;2089499;28;20395;-69
2022/04/24 04:57:38;;;;;;;8.98;8.07;;;10.00;96.40;;;;;;2086024;28;20022;-69
2022/04/24 04:58:39;;;;;;;8.60;7.80;;;10.00;96.70;;;;;;2088083;28;20451;-69
2022/04/24 04:59:39;;;;;;;9.85;8.52;;;10.00;96.90;;;;;;2088928;28;20041;-69
2022/04/24 05:00:40;;;;;;;9.13;8.27;;;10.00;97.00;;;;;;2087524;28;20119;-69
2022/04/24 05:01:41;;;;;;;8.60;7.55;;;10.00;97.10;;;;;;2088282;28;20025;-69
2022/04/24 05:02:41;;;;;;;9.70;7.20;;;10.00;97.20;;;;;;2086524;28;20082;-69
2022/04/24 05:03:42;;;;;;;9.80;8.80;;;10.00;97.10;;;;;;2088000;28;20534;-69
2022/04/24 05:04:43;;;;;;;8.93;8.18;;;10.00;97.30;;;;;;2089440;28;20027;-69
2022/04/24 05:05:43;;;;;;;10.90;8.00;;;10.00;97.50;;;;;;2088457;28;20724;-69
2022/04/24 05:06:44;;;;;;;8.80;7.85;;;10.00;97.60;;;;;;2088952;28;20043;-69
2022/04/24 05:07:45;;;;;;;8.77;7.97;;;10.00;97.60;;;;;;2088364;28;20051;-69
2022/04/24 05:08:45;;;;;;;8.95;7.63;;;10.00;97.70;;;;;;2090392;28;20764;-69
2022/04/24 05:09:46;;;;;;;9.05;8.15;;;10.00;97.40;;;;;;2087598;28;20081;-69
2022/04/24 05:10:46;;;;;;;8.45;7.65;;;10.00;97.70;;;;;;2085792;28;20029;-69
2022/04/24 05:11:47;;;;;;;8.55;7.75;;;10.00;97.80;;;;;;2091334;28;20033;-69
2022/04/24 05:12:47;;;;;;;8.95;8.15;;;10.00;97.80;;;;;;2086917;28;20515;-69
2022/04/24 05:13:48;;;;;;;8.10;7.40;;;10.00;97.90;;;;;;2088116;28;20639;-69
2022/04/24 05:14:48;;;;;;;9.27;8.35;;;10.00;97.90;;;;;;2088422;28;20503;-69
2022/04/24 05:15:49;;;;;;;7.80;7.07;;;10.00;98.00;;;;;;2088472;28;20492;-69
2022/04/24 05:16:49;;;;;;;8.18;7.38;;;10.00;98.10;;;;;;2088841;28;20877;-69